Time;durP1;ratioP1;P1;durP2;ratioP2;P2;SDS_P1;SDS_P2;PMS_P1;PMS_P2;Temp;Humidity;BMP_temperature;BMP_pressure;BME280_temperature;BME280_humidity;BME280_pressure;Samples;Min_cycle;Max_cycle;Signal;HPM_P1;HPM_P2
2021/01/13 00:00:35;;;;;;;12.07;8.80;;;2.60;99.90;;;;;;5063113;28;20437;-66
2021/01/13 00:03:00;;;;;;;14.40;8.57;;;2.60;99.90;;;;;;5067352;28;20172;-66
2021/01/13 00:05:26;;;;;;;18.40;8.97;;;2.60;99.90;;;;;;5066278;28;20179;-66
2021/01/13 00:07:52;;;;;;;17.73;7.30;;;2.60;99.90;;;;;;5062398;28;20723;-66
2021/01/13 00:10:19;;;;;;;14.70;8.10;;;2.70;99.90;;;;;;5066804;28;20186;-66
2021/01/13 00:12:44;;;;;;;10.80;6.73;;;2.70;99.90;;;;;;5066303;28;20437;-66
2021/01/13 00:15:11;;;;;;;14.07;10.00;;;2.70;99.90;;;;;;5061313;28;20755;-66
2021/01/13 00:17:37;;;;;;;11.27;7.63;;;2.70;99.90;;;;;;5062712;28;20925;-66
2021/01/13 00:20:04;;;;;;;9.90;8.40;;;2.70;99.90;;;;;;5066829;28;21005;-66
2021/01/13 00:22:30;;;;;;;14.73;8.70;;;2.60;99.90;;;;;;5066452;28;20425;-66
2021/01/13 00:24:57;;;;;;;11.77;7.20;;;2.60;99.90;;;;;;5064470;28;20512;-66
2021/01/13 00:27:22;;;;;;;15.77;8.60;;;2.60;99.90;;;;;;5064311;28;20183;-66
2021/01/13 00:29:51;;;;;;;13.70;7.60;;;2.60;99.90;;;;;;5063327;28;20429;-66
2021/01/13 00:32:16;;;;;;;13.60;8.93;;;2.60;99.90;;;;;;5065620;28;20180;-66
2021/01/13 00:34:42;;;;;;;15.63;7.40;;;2.60;99.90;;;;;;5063619;28;20507;-66
2021/01/13 00:37:08;;;;;;;13.53;8.30;;;2.50;99.90;;;;;;5065254;28;20303;-66
2021/01/13 00:39:34;;;;;;;21.87;8.53;;;2.60;99.90;;;;;;5065389;28;20533;-66
2021/01/13 00:42:04;;;;;;;18.00;9.33;;;2.60;99.90;;;;;;5063718;28;20183;-66
2021/01/13 00:44:29;;;;;;;14.73;8.33;;;2.60;99.90;;;;;;5065148;28;20943;-66
2021/01/13 00:46:55;;;;;;;13.80;9.20;;;2.70;99.90;;;;;;5061265;28;20472;-66
2021/01/13 00:49:20;;;;;;;11.10;7.87;;;2.70;99.90;;;;;;5065017;28;20266;-66
2021/01/13 00:51:46;;;;;;;18.43;8.93;;;2.70;99.90;;;;;;5061741;28;20184;-66
2021/01/13 00:54:12;;;;;;;11.03;7.40;;;2.80;99.90;;;;;;5063942;28;20223;-66
2021/01/13 00:56:40;;;;;;;13.20;8.67;;;2.80;99.90;;;;;;5063540;28;20291;-66
2021/01/13 00:59:05;;;;;;;14.67;8.67;;;2.80;99.90;;;;;;5067666;28;20544;-66
2021/01/13 01:01:31;;;;;;;16.67;8.53;;;2.80;99.90;;;;;;5067471;28;20532;-66
2021/01/13 01:03:58;;;;;;;11.43;8.60;;;2.90;99.90;;;;;;5061011;28;20191;-66
2021/01/13 01:06:24;;;;;;;14.00;8.37;;;2.90;99.90;;;;;;5065128;28;20259;-66
2021/01/13 01:08:51;;;;;;;13.03;8.20;;;2.90;99.90;;;;;;5060831;28;20438;-66
2021/01/13 01:11:24;;;;;;;10.40;7.90;;;2.90;99.90;;;;;;5061913;28;20438;-66
2021/01/13 01:13:49;;;;;;;16.57;8.40;;;2.90;99.90;;;;;;5047053;28;20473;-66
2021/01/13 01:16:16;;;;;;;13.63;9.67;;;2.80;99.90;;;;;;5072670;28;20489;-66
2021/01/13 01:18:42;;;;;;;12.97;7.63;;;2.80;99.90;;;;;;5041256;28;20192;-66
2021/01/13 01:21:08;;;;;;;18.87;11.60;;;2.70;99.90;;;;;;5068071;28;20437;-66
2021/01/13 01:23:34;;;;;;;15.30;10.17;;;2.70;99.90;;;;;;5064027;28;20465;-66
2021/01/13 01:26:01;;;;;;;22.27;11.47;;;2.60;99.90;;;;;;5066662;28;20736;-66
2021/01/13 01:28:27;;;;;;;24.10;14.70;;;2.60;99.90;;;;;;5064705;28;20516;-66
2021/01/13 01:30:52;;;;;;;22.10;13.10;;;2.50;99.90;;;;;;5066020;28;20516;-66
2021/01/13 01:33:18;;;;;;;17.83;10.43;;;2.50;99.90;;;;;;5065678;28;20187;-66
2021/01/13 01:35:43;;;;;;;14.43;9.60;;;2.50;99.90;;;;;;5052307;28;20290;-66
2021/01/13 01:38:09;;;;;;;13.40;9.60;;;2.50;99.90;;;;;;5069697;28;20191;-66
2021/01/13 01:40:34;;;;;;;17.93;8.77;;;2.50;99.90;;;;;;5067894;28;20202;-66
2021/01/13 01:43:00;;;;;;;16.90;10.77;;;2.50;99.90;;;;;;5068317;28;20176;-66
2021/01/13 01:45:30;;;;;;;14.93;10.50;;;2.50;99.90;;;;;;5068233;28;20266;-67
2021/01/13 01:48:02;;;;;;;13.47;10.13;;;2.40;99.90;;;;;;5067090;28;20180;-66
2021/01/13 01:50:31;;;;;;;17.20;11.03;;;2.40;99.90;;;;;;5069521;28;20436;-66
2021/01/13 01:53:18;;;;;;;20.00;10.70;;;2.40;99.90;;;;;;5069193;28;20456;-66
2021/01/13 01:56:17;;;;;;;16.07;10.50;;;2.40;99.90;;;;;;5065788;28;20436;-66
2021/01/13 01:58:49;;;;;;;17.67;11.50;;;2.50;99.90;;;;;;5065510;28;20480;-66
2021/01/13 02:01:26;;;;;;;19.57;12.63;;;2.40;99.90;;;;;;5068996;28;20425;-66
2021/01/13 02:04:03;;;;;;;17.90;12.97;;;2.40;99.90;;;;;;5065018;28;20429;-66
2021/01/13 02:06:31;;;;;;;16.83;11.50;;;2.40;99.90;;;;;;5067993;28;20940;-66
2021/01/13 02:08:57;;;;;;;25.30;12.93;;;2.40;99.90;;;;;;5065345;28;20450;-67
2021/01/13 02:11:26;;;;;;;33.57;18.20;;;2.40;99.90;;;;;;5069932;28;20828;-66
2021/01/13 02:13:51;;;;;;;20.80;15.13;;;2.40;99.90;;;;;;5065063;28;20672;-66
2021/01/13 02:16:18;;;;;;;17.10;13.13;;;2.40;99.90;;;;;;5066840;28;20496;-66
2021/01/13 02:18:45;;;;;;;22.87;16.03;;;2.40;99.90;;;;;;5065780;28;20714;-66
2021/01/13 02:21:16;;;;;;;19.33;14.30;;;2.40;99.90;;;;;;5064808;28;20648;-66
2021/01/13 02:24:02;;;;;;;19.17;12.77;;;2.50;99.90;;;;;;5066347;28;20437;-66
2021/01/13 02:27:05;;;;;;;18.27;11.50;;;2.50;99.90;;;;;;5066287;28;20766;-66
2021/01/13 02:29:56;;;;;;;21.23;11.50;;;2.50;99.90;;;;;;5067039;28;20437;-66
2021/01/13 02:32:29;;;;;;;19.77;11.60;;;2.40;99.90;;;;;;5065074;28;20448;-66
2021/01/13 02:35:15;;;;;;;14.70;11.33;;;2.40;99.90;;;;;;5061238;28;20477;-66
2021/01/13 02:37:42;;;;;;;21.47;13.67;;;2.30;99.90;;;;;;5066082;28;20556;-66
2021/01/13 02:40:10;;;;;;;18.70;11.73;;;2.30;99.90;;;;;;5066778;28;20489;-66
2021/01/13 02:42:38;;;;;;;22.77;15.20;;;2.30;99.90;;;;;;5068719;28;20449;-66
2021/01/13 02:45:12;;;;;;;36.40;20.07;;;2.30;99.90;;;;;;5060897;28;20444;-66
2021/01/13 02:47:58;;;;;;;27.37;18.27;;;2.30;99.90;;;;;;5067375;28;20934;-66
2021/01/13 02:50:28;;;;;;;19.93;15.17;;;2.30;99.90;;;;;;5066048;28;20437;-66
2021/01/13 02:53:07;;;;;;;24.00;16.20;;;2.30;99.90;;;;;;5067604;28;20544;-66
2021/01/13 02:55:47;;;;;;;22.43;11.00;;;2.30;99.90;;;;;;5035082;28;20442;-66
2021/01/13 02:58:31;;;;;;;18.90;11.97;;;2.30;99.90;;;;;;5066670;28;20453;-66
2021/01/13 03:00:57;;;;;;;19.67;12.47;;;2.30;99.90;;;;;;5037057;28;20517;-66
2021/01/13 03:03:23;;;;;;;14.20;11.90;;;2.30;99.90;;;;;;5066809;28;20471;-66
2021/01/13 03:05:49;;;;;;;13.50;11.07;;;2.20;99.90;;;;;;5064059;28;20429;-66
2021/01/13 03:08:16;;;;;;;12.27;10.80;;;2.20;99.90;;;;;;5068616;28;20231;-66
2021/01/13 03:10:45;;;;;;;15.93;11.40;;;2.20;99.90;;;;;;5066749;28;20654;-66
2021/01/13 03:13:11;;;;;;;24.67;11.80;;;2.20;99.90;;;;;;5062769;28;22373;-66
2021/01/13 03:15:38;;;;;;;17.13;11.20;;;2.10;99.90;;;;;;5067251;28;20438;-66
2021/01/13 03:18:14;;;;;;;17.30;13.30;;;2.10;99.90;;;;;;5063231;28;20469;-66
2021/01/13 03:20:49;;;;;;;16.63;11.57;;;2.10;99.90;;;;;;5067689;28;20889;-66
2021/01/13 03:23:23;;;;;;;17.17;11.87;;;2.00;99.90;;;;;;5064240;28;20437;-66
2021/01/13 03:26:01;;;;;;;16.73;10.97;;;2.00;99.90;;;;;;5063711;28;20437;-66
2021/01/13 03:28:31;;;;;;;20.67;12.40;;;2.00;99.90;;;;;;5064335;28;20462;-65
2021/01/13 03:30:58;;;;;;;14.53;11.67;;;2.00;99.90;;;;;;5064747;28;20535;-65
2021/01/13 03:33:23;;;;;;;19.67;11.60;;;2.00;99.90;;;;;;5066355;28;20426;-65
2021/01/13 03:35:59;;;;;;;20.13;12.70;;;2.00;99.90;;;;;;5067265;28;20791;-65
2021/01/13 03:38:28;;;;;;;20.17;11.33;;;2.00;99.90;;;;;;5063268;28;20228;-65
2021/01/13 03:41:02;;;;;;;14.70;12.07;;;2.10;99.90;;;;;;5067624;28;20480;-65
2021/01/13 03:43:37;;;;;;;16.27;11.60;;;2.10;99.90;;;;;;5065126;28;20932;-65
2021/01/13 03:46:08;;;;;;;19.37;12.27;;;2.20;99.90;;;;;;5063139;28;20437;-66
2021/01/13 03:48:47;;;;;;;16.90;12.37;;;2.20;99.90;;;;;;5064661;28;20433;-66
2021/01/13 03:51:31;;;;;;;19.83;12.50;;;2.30;99.90;;;;;;5065718;28;21044;-66
2021/01/13 03:54:03;;;;;;;16.30;12.40;;;2.30;99.90;;;;;;5066648;28;20499;-66
2021/01/13 03:56:29;;;;;;;21.37;13.80;;;2.40;99.90;;;;;;5067265;28;20445;-66
2021/01/13 03:59:03;;;;;;;19.10;13.40;;;2.40;99.90;;;;;;5064837;28;20456;-66
2021/01/13 04:01:46;;;;;;;19.77;14.87;;;2.50;99.90;;;;;;5057194;28;20197;-66
2021/01/13 04:04:38;;;;;;;18.80;13.57;;;2.60;99.90;;;;;;5062159;28;21106;-66
2021/01/13 04:07:08;;;;;;;19.27;14.50;;;2.60;99.90;;;;;;5064469;28;20479;-66
2021/01/13 04:09:34;;;;;;;19.67;15.40;;;2.70;99.90;;;;;;5064092;28;20426;-66
2021/01/13 04:12:11;;;;;;;21.30;15.77;;;2.70;99.90;;;;;;5067589;28;20441;-66
2021/01/13 04:14:50;;;;;;;18.90;15.47;;;2.70;99.90;;;;;;5065690;28;20265;-66
2021/01/13 04:17:17;;;;;;;24.73;14.20;;;2.70;99.90;;;;;;5066476;28;20462;-66
2021/01/13 04:19:43;;;;;;;24.90;14.77;;;2.70;99.90;;;;;;5066108;28;20442;-66
2021/01/13 04:22:12;;;;;;;26.03;18.03;;;2.60;99.90;;;;;;5064175;28;20946;-66
2021/01/13 04:24:38;;;;;;;25.20;17.17;;;2.60;99.90;;;;;;5061953;28;20564;-66
2021/01/13 04:27:04;;;;;;;25.53;16.03;;;2.50;99.90;;;;;;5060520;28;20809;-66
2021/01/13 04:29:30;;;;;;;20.57;15.47;;;2.50;99.90;;;;;;5062887;28;20442;-66
2021/01/13 04:31:56;;;;;;;24.53;16.17;;;2.50;99.90;;;;;;5065485;28;20434;-66
2021/01/13 04:34:22;;;;;;;25.00;16.57;;;2.60;99.90;;;;;;5062294;28;20279;-66
2021/01/13 04:36:49;;;;;;;23.10;18.20;;;2.60;99.90;;;;;;5066877;28;20284;-66
2021/01/13 04:39:18;;;;;;;20.03;16.63;;;2.60;99.90;;;;;;5065466;28;20211;-66
2021/01/13 04:42:08;;;;;;;22.00;18.17;;;2.70;99.90;;;;;;5063941;28;20449;-66
2021/01/13 04:44:42;;;;;;;23.53;18.13;;;2.70;99.90;;;;;;5065033;28;20521;-66
2021/01/13 04:47:09;;;;;;;21.37;16.53;;;2.80;99.90;;;;;;5064794;28;20434;-66
2021/01/13 04:49:36;;;;;;;25.03;17.93;;;2.80;99.90;;;;;;5071868;28;20438;-66
2021/01/13 04:52:09;;;;;;;22.10;16.53;;;2.90;99.90;;;;;;5067753;28;20441;-66
2021/01/13 04:54:37;;;;;;;21.23;15.90;;;2.90;99.90;;;;;;5070198;28;20487;-66
2021/01/13 04:57:36;;;;;;;27.03;16.87;;;2.90;99.90;;;;;;5066039;28;20464;-66
2021/01/13 05:00:11;;;;;;;20.27;17.17;;;2.90;99.90;;;;;;5068963;28;20516;-66
2021/01/13 05:02:56;;;;;;;21.10;17.77;;;2.90;99.90;;;;;;5067461;28;20441;-66
2021/01/13 05:05:22;;;;;;;21.30;17.27;;;2.90;99.90;;;;;;5071284;28;20444;-66
2021/01/13 05:08:08;;;;;;;18.53;16.60;;;3.00;99.90;;;;;;5064867;28;20467;-66
2021/01/13 05:10:40;;;;;;;19.13;16.23;;;3.00;99.90;;;;;;5065688;28;20444;-66
2021/01/13 05:13:06;;;;;;;22.83;17.13;;;3.00;99.90;;;;;;5060506;28;20437;-66
2021/01/13 05:15:32;;;;;;;20.40;16.27;;;3.00;99.90;;;;;;5063047;28;20456;-66
2021/01/13 05:18:00;;;;;;;21.33;17.53;;;3.00;99.90;;;;;;5066255;28;20476;-66
2021/01/13 05:20:28;;;;;;;22.30;15.60;;;3.00;99.90;;;;;;5065283;28;20852;-66
2021/01/13 05:22:56;;;;;;;26.90;17.70;;;3.00;99.90;;;;;;5038670;28;20780;-66
2021/01/13 05:25:39;;;;;;;20.73;18.17;;;3.00;99.90;;;;;;5064532;28;20471;-66
2021/01/13 05:28:23;;;;;;;27.77;17.57;;;3.00;99.90;;;;;;5066196;28;20437;-66
2021/01/13 05:30:50;;;;;;;29.10;19.50;;;3.00;99.90;;;;;;5037247;28;20538;-66
2021/01/13 05:33:19;;;;;;;22.13;17.87;;;3.10;99.90;;;;;;5068712;28;20436;-66
2021/01/13 05:35:47;;;;;;;23.57;17.77;;;3.10;99.90;;;;;;5047144;28;20492;-66
2021/01/13 05:38:37;;;;;;;23.47;16.73;;;3.10;99.90;;;;;;5067491;28;20826;-66
2021/01/13 05:41:11;;;;;;;20.17;16.80;;;3.10;99.90;;;;;;5054994;28;21086;-66
2021/01/13 05:43:47;;;;;;;19.73;16.00;;;3.10;99.90;;;;;;5061222;28;20444;-66
2021/01/13 05:46:15;;;;;;;20.43;15.90;;;3.10;99.90;;;;;;5064385;28;20490;-66
2021/01/13 05:48:42;;;;;;;22.63;15.40;;;3.10;99.90;;;;;;5069313;28;21163;-66
2021/01/13 05:51:09;;;;;;;17.33;14.43;;;3.10;99.90;;;;;;5068701;28;20426;-66
2021/01/13 05:53:34;;;;;;;17.13;15.37;;;3.10;99.90;;;;;;5070380;28;20449;-66
2021/01/13 05:56:03;;;;;;;19.33;16.03;;;3.20;99.90;;;;;;5069331;28;20434;-66
2021/01/13 05:58:30;;;;;;;24.43;15.90;;;3.20;99.90;;;;;;5065539;28;20227;-66
2021/01/13 06:00:59;;;;;;;17.40;14.57;;;3.20;99.90;;;;;;5066898;28;20446;-66
2021/01/13 06:03:29;;;;;;;21.33;14.70;;;3.20;99.90;;;;;;5064057;28;20442;-66
2021/01/13 06:05:59;;;;;;;18.90;16.70;;;3.20;99.90;;;;;;5037942;28;20901;-66
2021/01/13 06:08:31;;;;;;;21.53;17.07;;;3.20;99.90;;;;;;5069081;28;20457;-66
2021/01/13 06:11:01;;;;;;;21.23;18.10;;;3.30;99.90;;;;;;5065105;28;20441;-66
2021/01/13 06:13:34;;;;;;;23.27;17.27;;;3.30;99.90;;;;;;5066982;28;20441;-66
2021/01/13 06:16:04;;;;;;;19.57;16.97;;;3.30;99.90;;;;;;5068384;28;20476;-66
2021/01/13 06:18:33;;;;;;;21.90;16.70;;;3.30;99.90;;;;;;5069165;28;20487;-66
2021/01/13 06:21:06;;;;;;;18.27;16.37;;;3.30;99.90;;;;;;5067727;28;20429;-66
2021/01/13 06:23:40;;;;;;;25.20;17.60;;;3.30;99.90;;;;;;5064287;28;20440;-65
2021/01/13 06:26:06;;;;;;;20.67;16.07;;;3.30;99.90;;;;;;5064117;28;20434;-66
2021/01/13 06:28:52;;;;;;;18.93;16.83;;;3.30;99.90;;;;;;5061490;28;20465;-66
2021/01/13 06:31:22;;;;;;;22.47;15.90;;;3.30;99.90;;;;;;5062598;28;20183;-66
2021/01/13 06:34:22;;;;;;;19.20;17.20;;;3.40;99.90;;;;;;5066177;28;20474;-66
2021/01/13 06:37:20;;;;;;;21.67;17.00;;;3.40;99.90;;;;;;5047029;28;20469;-66
2021/01/13 06:39:46;;;;;;;27.90;19.83;;;3.40;99.90;;;;;;5066417;28;20461;-66
2021/01/13 06:42:12;;;;;;;21.93;17.53;;;3.40;99.90;;;;;;5063977;28;20524;-66
2021/01/13 06:44:44;;;;;;;23.57;19.60;;;3.40;99.90;;;;;;5041952;28;20868;-66
2021/01/13 06:47:10;;;;;;;25.20;21.10;;;3.40;99.90;;;;;;5064872;28;22712;-66
2021/01/13 06:49:36;;;;;;;27.67;21.47;;;3.50;99.90;;;;;;5067587;28;20444;-66
2021/01/13 06:52:01;;;;;;;28.67;20.30;;;3.50;99.90;;;;;;5063432;28;20172;-66
2021/01/13 06:54:27;;;;;;;23.20;20.40;;;3.50;99.90;;;;;;5066778;28;20326;-66
2021/01/13 06:56:55;;;;;;;27.03;20.27;;;3.50;99.90;;;;;;5067178;28;20221;-66
2021/01/13 06:59:22;;;;;;;28.07;21.60;;;3.50;99.90;;;;;;5067452;28;20961;-66
2021/01/13 07:01:56;;;;;;;30.40;21.53;;;3.50;99.90;;;;;;5064707;28;20447;-66
2021/01/13 07:04:23;;;;;;;25.97;21.60;;;3.50;99.90;;;;;;5051218;28;20438;-66
2021/01/13 07:07:06;;;;;;;28.60;19.80;;;3.50;99.90;;;;;;5063894;28;20442;-66
2021/01/13 07:09:49;;;;;;;22.63;19.30;;;3.60;99.90;;;;;;5064492;28;20433;-66
2021/01/13 07:12:20;;;;;;;31.23;21.63;;;3.60;99.90;;;;;;5068049;28;21113;-66
2021/01/13 07:14:49;;;;;;;21.60;18.13;;;3.60;99.90;;;;;;5065661;28;20442;-66
2021/01/13 07:17:22;;;;;;;27.73;19.93;;;3.60;99.90;;;;;;5049686;28;20497;-66
2021/01/13 07:19:52;;;;;;;21.70;17.93;;;3.60;99.90;;;;;;5069712;28;20445;-66
2021/01/13 07:22:23;;;;;;;20.20;18.10;;;3.60;99.90;;;;;;5065091;28;20562;-66
2021/01/13 07:24:50;;;;;;;34.97;20.13;;;3.60;99.90;;;;;;5064025;28;20437;-66
2021/01/13 07:27:17;;;;;;;25.60;17.50;;;3.60;99.90;;;;;;5066116;28;20887;-66
2021/01/13 07:29:43;;;;;;;21.37;16.60;;;3.60;99.90;;;;;;5064189;28;20441;-66
2021/01/13 07:32:29;;;;;;;26.90;15.40;;;3.60;99.90;;;;;;5117167;27;20704;-67
2021/01/13 07:35:04;;;;;;;21.13;16.97;;;3.70;99.90;;;;;;5105066;28;20435;-65
2021/01/13 07:37:38;;;;;;;29.07;17.23;;;3.60;99.90;;;;;;5094566;28;20564;-65
2021/01/13 07:40:28;;;;;;;20.03;15.63;;;3.70;99.90;;;;;;5084529;28;20453;-65
2021/01/13 07:43:05;;;;;;;22.37;16.30;;;3.60;99.90;;;;;;5070382;28;20469;-65
2021/01/13 07:45:44;;;;;;;20.27;15.87;;;3.60;99.90;;;;;;5076004;28;20473;-65
2021/01/13 07:48:12;;;;;;;20.67;16.97;;;3.60;99.90;;;;;;5073312;28;20420;-65
2021/01/13 07:50:44;;;;;;;25.63;17.53;;;3.60;99.90;;;;;;5070553;28;20501;-65
2021/01/13 07:53:24;;;;;;;20.43;16.47;;;3.50;99.90;;;;;;5069011;28;20575;-65
2021/01/13 07:56:03;;;;;;;22.83;19.37;;;3.60;99.90;;;;;;5074351;28;20425;-65
2021/01/13 07:58:33;;;;;;;21.23;16.70;;;3.60;99.90;;;;;;5067543;28;20801;-65
2021/01/13 08:01:04;;;;;;;31.00;18.37;;;3.60;99.90;;;;;;5068886;28;20495;-65
2021/01/13 08:03:57;;;;;;;29.90;21.37;;;3.60;99.90;;;;;;5069270;28;20422;-65
2021/01/13 08:06:28;;;;;;;24.40;17.00;;;3.70;99.90;;;;;;5078420;28;20505;-65
2021/01/13 08:09:14;;;;;;;21.80;18.03;;;3.70;99.90;;;;;;5069748;28;20971;-65
2021/01/13 08:12:02;;;;;;;26.20;17.43;;;3.70;99.90;;;;;;5070324;28;20969;-65
2021/01/13 08:14:33;;;;;;;20.97;17.73;;;3.80;99.90;;;;;;5072346;28;20430;-65
2021/01/13 08:17:46;;;;;;;22.27;16.70;;;3.80;99.90;;;;;;5069221;28;20498;-65
2021/01/13 08:20:33;;;;;;;23.63;18.20;;;3.80;99.90;;;;;;5068026;28;20426;-65
2021/01/13 08:22:59;;;;;;;23.83;19.07;;;3.80;99.90;;;;;;5069006;28;21227;-65
2021/01/13 08:25:29;;;;;;;21.20;18.53;;;3.80;99.90;;;;;;5067641;28;22682;-65
2021/01/13 08:28:00;;;;;;;22.63;18.23;;;3.80;99.90;;;;;;5067994;28;20436;-65
2021/01/13 08:30:29;;;;;;;21.63;17.90;;;3.80;99.90;;;;;;5074288;28;21092;-65
2021/01/13 08:32:56;;;;;;;32.83;19.30;;;3.80;99.90;;;;;;5069949;28;20434;-67
2021/01/13 08:35:41;;;;;;;19.43;16.57;;;3.80;99.90;;;;;;5069524;28;20413;-67
2021/01/13 08:38:09;;;;;;;24.03;18.20;;;3.90;99.90;;;;;;5073892;28;20792;-66
2021/01/13 08:40:37;;;;;;;19.60;17.07;;;3.90;99.90;;;;;;5070495;28;20511;-67
2021/01/13 08:43:12;;;;;;;24.30;16.40;;;3.90;99.90;;;;;;5067160;28;20432;-67
2021/01/13 08:45:43;;;;;;;21.20;18.10;;;3.90;99.90;;;;;;5056335;28;20799;-67
2021/01/13 08:48:13;;;;;;;19.73;17.43;;;3.90;99.90;;;;;;5061787;28;20484;-67
2021/01/13 08:50:39;;;;;;;19.77;16.50;;;3.90;99.90;;;;;;5055645;28;20508;-67
2021/01/13 08:53:05;;;;;;;24.73;19.40;;;3.90;99.90;;;;;;5065915;28;20430;-67
2021/01/13 08:55:33;;;;;;;22.30;16.93;;;4.00;99.90;;;;;;5056031;28;20638;-67
2021/01/13 08:58:05;;;;;;;20.30;16.80;;;4.00;99.90;;;;;;5056498;28;20469;-67
2021/01/13 09:00:33;;;;;;;27.13;18.37;;;4.00;99.90;;;;;;5057542;28;20548;-67
2021/01/13 09:03:13;;;;;;;20.30;16.63;;;4.00;99.90;;;;;;5059288;28;20435;-67
2021/01/13 09:05:41;;;;;;;21.93;17.70;;;4.10;99.90;;;;;;5055953;28;20423;-67
2021/01/13 09:08:09;;;;;;;24.63;18.07;;;4.10;99.90;;;;;;5058299;28;20456;-67
2021/01/13 09:10:53;;;;;;;26.10;16.70;;;4.10;99.90;;;;;;5055308;28;20987;-67
2021/01/13 09:13:41;;;;;;;21.20;17.07;;;4.10;99.90;;;;;;5054515;28;20419;-67
2021/01/13 09:16:24;;;;;;;19.47;17.40;;;4.10;99.90;;;;;;5055885;28;20788;-65
2021/01/13 09:19:05;;;;;;;28.13;18.27;;;4.20;99.90;;;;;;5054279;28;20442;-65
2021/01/13 09:21:36;;;;;;;20.90;16.30;;;4.10;99.90;;;;;;5058269;28;20429;-65
2021/01/13 09:24:03;;;;;;;19.80;17.80;;;4.20;99.90;;;;;;5059262;28;20483;-65
2021/01/13 09:26:37;;;;;;;20.07;16.70;;;4.20;99.90;;;;;;5056407;28;20476;-65
2021/01/13 09:29:10;;;;;;;16.93;15.07;;;4.20;99.90;;;;;;5056521;28;20434;-66
2021/01/13 09:31:38;;;;;;;21.50;16.23;;;4.30;99.90;;;;;;5054819;28;20467;-67
2021/01/13 09:34:05;;;;;;;17.43;15.43;;;4.30;99.90;;;;;;5053384;28;20476;-65
2021/01/13 09:36:51;;;;;;;18.73;14.77;;;4.40;99.90;;;;;;5053967;28;20513;-66
2021/01/13 09:39:16;;;;;;;20.30;15.23;;;4.40;99.90;;;;;;5053243;28;20993;-65
2021/01/13 09:41:55;;;;;;;19.60;16.50;;;4.50;99.90;;;;;;5054218;28;20474;-66
2021/01/13 09:44:22;;;;;;;22.10;16.27;;;4.50;99.90;;;;;;5058422;28;20184;-66
2021/01/13 09:46:48;;;;;;;23.60;16.83;;;4.50;99.90;;;;;;5059222;28;20866;-66
2021/01/13 09:49:13;;;;;;;25.90;16.23;;;4.60;99.90;;;;;;5058653;28;20465;-66
2021/01/13 09:51:40;;;;;;;21.50;17.17;;;4.70;99.90;;;;;;5058309;28;20206;-66
2021/01/13 09:54:08;;;;;;;16.40;13.97;;;4.80;99.90;;;;;;5060571;28;20320;-66
2021/01/13 09:56:35;;;;;;;29.03;17.40;;;4.90;99.90;;;;;;5052897;28;20430;-66
2021/01/13 09:59:05;;;;;;;23.53;16.50;;;5.00;99.90;;;;;;5058426;28;20418;-66
2021/01/13 10:01:33;;;;;;;17.10;15.07;;;4.90;99.90;;;;;;5057132;28;20422;-65
2021/01/13 10:04:01;;;;;;;20.93;16.90;;;5.00;99.90;;;;;;5057916;28;20487;-66
2021/01/13 10:06:31;;;;;;;22.07;17.17;;;5.00;99.90;;;;;;5053823;28;20992;-66
2021/01/13 10:08:59;;;;;;;16.83;15.20;;;5.00;99.90;;;;;;5052734;28;20470;-66
2021/01/13 10:11:27;;;;;;;19.40;14.70;;;5.00;99.90;;;;;;5053880;28;20546;-66
2021/01/13 10:13:58;;;;;;;23.43;14.03;;;5.00;99.90;;;;;;5051952;28;20470;-66
2021/01/13 10:16:25;;;;;;;17.00;15.20;;;5.10;99.90;;;;;;5053762;28;20461;-66
2021/01/13 10:18:56;;;;;;;14.53;13.03;;;5.10;99.90;;;;;;5055620;28;20883;-66
2021/01/13 10:21:23;;;;;;;16.20;14.27;;;5.10;99.90;;;;;;5050272;28;20488;-66
2021/01/13 10:23:49;;;;;;;18.23;14.20;;;5.10;99.90;;;;;;5060011;28;20911;-66
2021/01/13 10:26:16;;;;;;;18.87;13.23;;;5.20;99.90;;;;;;5053371;28;20433;-66
2021/01/13 10:28:42;;;;;;;19.40;14.77;;;5.20;99.90;;;;;;5060486;28;20429;-66
2021/01/13 10:31:10;;;;;;;20.80;14.57;;;5.30;99.90;;;;;;5051910;28;20486;-66
2021/01/13 10:33:48;;;;;;;15.77;12.17;;;5.40;99.90;;;;;;5055227;28;20430;-66
2021/01/13 10:36:30;;;;;;;16.77;13.53;;;5.40;99.90;;;;;;5053346;28;20436;-66
2021/01/13 10:38:59;;;;;;;17.50;12.50;;;5.40;99.90;;;;;;5053542;28;20781;-66
2021/01/13 10:41:32;;;;;;;21.40;14.70;;;5.50;99.90;;;;;;5052597;28;20931;-66
2021/01/13 10:44:27;;;;;;;17.30;13.53;;;5.50;99.90;;;;;;5057855;28;20430;-66
2021/01/13 10:46:58;;;;;;;21.53;13.83;;;5.50;99.90;;;;;;5052948;28;20427;-66
2021/01/13 10:49:42;;;;;;;15.83;12.43;;;5.50;99.90;;;;;;5054654;28;20780;-66
2021/01/13 10:52:20;;;;;;;14.57;12.57;;;5.40;99.90;;;;;;5051373;28;20466;-66
2021/01/13 10:54:52;;;;;;;17.60;13.37;;;5.40;99.90;;;;;;5054853;28;20994;-66
2021/01/13 10:57:28;;;;;;;16.70;12.60;;;5.30;99.90;;;;;;5054925;28;20487;-66
2021/01/13 11:00:09;;;;;;;16.83;13.50;;;5.40;99.90;;;;;;5054114;28;20957;-66
2021/01/13 11:02:35;;;;;;;20.57;13.17;;;5.40;99.90;;;;;;5072303;28;20453;-66
2021/01/13 11:05:01;;;;;;;19.10;13.90;;;5.50;99.90;;;;;;5052651;28;20426;-66
2021/01/13 11:07:37;;;;;;;43.97;14.77;;;5.40;99.90;;;;;;5052330;28;20177;-66
2021/01/13 11:10:04;;;;;;;16.97;15.10;;;5.50;99.90;;;;;;5053559;28;20516;-66
2021/01/13 11:12:30;;;;;;;16.77;12.83;;;5.50;99.90;;;;;;5057412;28;20882;-66
2021/01/13 11:14:56;;;;;;;18.30;14.83;;;5.50;99.90;;;;;;5058688;28;20445;-66
2021/01/13 11:17:23;;;;;;;18.63;14.30;;;5.40;99.90;;;;;;5056567;28;20263;-66
2021/01/13 11:19:51;;;;;;;19.67;15.50;;;5.40;99.90;;;;;;5057969;28;20184;-66
2021/01/13 11:22:18;;;;;;;15.77;13.97;;;5.50;99.90;;;;;;5051859;28;20936;-66
2021/01/13 11:24:51;;;;;;;18.43;14.50;;;5.50;99.90;;;;;;5057594;28;20436;-66
2021/01/13 11:27:22;;;;;;;21.40;13.67;;;5.60;99.90;;;;;;5055627;28;20427;-66
2021/01/13 11:29:52;;;;;;;16.50;14.27;;;5.50;99.90;;;;;;5058143;28;20427;-66
2021/01/13 11:32:19;;;;;;;19.73;14.17;;;5.60;99.90;;;;;;5054243;28;21136;-66
2021/01/13 11:34:52;;;;;;;19.23;13.67;;;5.60;99.90;;;;;;5058033;28;20459;-66
2021/01/13 11:37:46;;;;;;;16.97;13.97;;;5.60;99.90;;;;;;5053174;28;20876;-66
2021/01/13 11:40:38;;;;;;;23.43;14.93;;;5.60;99.90;;;;;;5051462;28;20489;-66
2021/01/13 11:43:25;;;;;;;17.60;12.90;;;5.70;99.90;;;;;;5052419;28;20513;-66
2021/01/13 11:46:04;;;;;;;16.83;13.30;;;5.70;99.90;;;;;;5051567;28;20969;-66
2021/01/13 11:48:40;;;;;;;18.40;14.50;;;5.80;99.90;;;;;;5058351;28;20907;-66
2021/01/13 11:51:15;;;;;;;18.80;14.13;;;5.90;99.90;;;;;;5051634;28;20956;-66
2021/01/13 11:53:45;;;;;;;15.90;13.43;;;5.90;99.90;;;;;;5052607;28;20514;-66
2021/01/13 11:56:10;;;;;;;17.90;12.20;;;5.90;99.90;;;;;;5058311;28;20800;-66
2021/01/13 11:58:44;;;;;;;20.23;14.13;;;5.90;99.90;;;;;;5052177;28;20530;-66
2021/01/13 12:01:11;;;;;;;23.33;14.13;;;6.00;99.90;;;;;;5054663;28;20253;-66
2021/01/13 12:03:36;;;;;;;14.63;12.67;;;6.00;99.90;;;;;;5056168;28;20450;-66
2021/01/13 12:06:09;;;;;;;14.53;12.90;;;6.00;99.90;;;;;;5054251;28;20711;-66
2021/01/13 12:08:35;;;;;;;14.13;11.10;;;6.10;99.90;;;;;;5052259;28;20542;-66
2021/01/13 12:11:01;;;;;;;21.47;14.47;;;6.10;99.90;;;;;;5053160;28;20450;-66
2021/01/13 12:13:28;;;;;;;15.63;11.40;;;6.10;99.90;;;;;;5054571;28;20172;-66
2021/01/13 12:16:04;;;;;;;13.53;11.27;;;6.10;99.90;;;;;;5052421;28;20426;-66
2021/01/13 12:18:36;;;;;;;19.23;12.17;;;6.10;99.90;;;;;;5056944;28;20419;-66
2021/01/13 12:21:28;;;;;;;16.13;12.60;;;6.10;99.90;;;;;;5063407;28;20451;-66
2021/01/13 12:23:54;;;;;;;18.60;10.90;;;6.10;99.90;;;;;;5063868;28;20429;-66
2021/01/13 12:26:27;;;;;;;12.70;11.10;;;6.10;99.90;;;;;;5056725;28;20454;-66
2021/01/13 12:28:55;;;;;;;13.27;11.90;;;6.10;99.90;;;;;;5057636;28;20434;-66
2021/01/13 12:31:22;;;;;;;18.40;11.07;;;6.10;99.90;;;;;;5054947;28;20479;-66
2021/01/13 12:33:52;;;;;;;14.63;11.57;;;6.10;99.90;;;;;;5055781;28;20955;-66
2021/01/13 12:36:29;;;;;;;11.87;9.93;;;6.10;99.90;;;;;;5056628;28;20428;-66
2021/01/13 12:38:57;;;;;;;15.47;9.93;;;6.10;99.90;;;;;;5054975;28;20478;-66
2021/01/13 12:41:31;;;;;;;14.20;9.97;;;6.10;99.90;;;;;;5062464;28;21012;-66
2021/01/13 12:44:03;;;;;;;19.43;11.87;;;6.20;99.90;;;;;;5054387;28;20467;-67
2021/01/13 12:46:37;;;;;;;18.33;13.00;;;6.20;99.90;;;;;;5060490;28;20426;-66
2021/01/13 12:49:04;;;;;;;15.50;11.17;;;6.20;99.90;;;;;;5055741;28;20426;-66
2021/01/13 12:51:30;;;;;;;12.03;10.17;;;6.10;99.90;;;;;;5060310;28;20466;-66
2021/01/13 12:53:58;;;;;;;14.60;10.40;;;6.10;99.90;;;;;;5060109;28;21000;-66
2021/01/13 12:56:24;;;;;;;12.30;9.90;;;6.00;99.90;;;;;;5058883;28;20426;-66
2021/01/13 12:58:51;;;;;;;13.97;10.67;;;6.00;99.90;;;;;;5059272;28;20521;-66
2021/01/13 13:01:16;;;;;;;13.63;10.40;;;6.00;99.90;;;;;;5061969;28;20769;-66